sensor_id;sensor_type;location;lat;lon;timestamp;P1;durP1;ratioP1;P2;durP2;ratioP2
46365;SDS011;32073;49.166;8.076;2022-10-22T00:02:01;2.78;;;0.30;;
46365;SDS011;32073;49.166;8.076;2022-10-22T00:06:04;2.17;;;0.35;;
46365;SDS011;32073;49.166;8.076;2022-10-22T00:10:06;1.50;;;0.30;;
46365;SDS011;32073;49.166;8.076;2022-10-22T00:14:07;0.68;;;0.28;;
46365;SDS011;32073;49.166;8.076;2022-10-22T00:18:08;0.30;;;0.20;;
46365;SDS011;32073;49.166;8.076;2022-10-22T00:22:09;0.73;;;0.22;;
46365;SDS011;32073;49.166;8.076;2022-10-22T00:26:11;3.30;;;0.52;;
46365;SDS011;32073;49.166;8.076;2022-10-22T00:30:12;1.20;;;0.80;;
46365;SDS011;32073;49.166;8.076;2022-10-22T00:34:13;0.65;;;0.20;;
46365;SDS011;32073;49.166;8.076;2022-10-22T00:38:14;0.40;;;0.20;;
46365;SDS011;32073;49.166;8.076;2022-10-22T00:42:17;0.65;;;0.30;;
46365;SDS011;32073;49.166;8.076;2022-10-22T00:46:21;4.65;;;0.50;;
46365;SDS011;32073;49.166;8.076;2022-10-22T00:54:48;0.77;;;0.28;;
46365;SDS011;32073;49.166;8.076;2022-10-22T00:58:52;0.98;;;0.50;;
46365;SDS011;32073;49.166;8.076;2022-10-22T01:02:56;1.17;;;0.30;;
46365;SDS011;32073;49.166;8.076;2022-10-22T01:06:57;0.35;;;0.35;;
46365;SDS011;32073;49.166;8.076;2022-10-22T01:20:07;0.43;;;0.20;;
46365;SDS011;32073;49.166;8.076;2022-10-22T01:29:06;0.63;;;0.30;;
46365;SDS011;32073;49.166;8.076;2022-10-22T01:33:17;1.17;;;0.45;;
46365;SDS011;32073;49.166;8.076;2022-10-22T01:37:21;0.50;;;0.30;;
46365;SDS011;32073;49.166;8.076;2022-10-22T01:41:26;0.55;;;0.20;;
46365;SDS011;32073;49.166;8.076;2022-10-22T01:45:29;0.50;;;0.30;;
46365;SDS011;32073;49.166;8.076;2022-10-22T01:54:01;1.33;;;0.28;;
46365;SDS011;32073;49.166;8.076;2022-10-22T01:58:40;2.00;;;0.30;;
46365;SDS011;32073;49.166;8.076;2022-10-22T02:02:59;0.30;;;0.20;;
46365;SDS011;32073;49.166;8.076;2022-10-22T02:07:06;0.60;;;0.20;;
46365;SDS011;32073;49.166;8.076;2022-10-22T02:11:10;1.05;;;0.20;;
46365;SDS011;32073;49.166;8.076;2022-10-22T02:15:13;1.33;;;0.38;;
46365;SDS011;32073;49.166;8.076;2022-10-22T02:19:27;0.68;;;0.22;;
46365;SDS011;32073;49.166;8.076;2022-10-22T02:23:41;0.50;;;0.10;;
46365;SDS011;32073;49.166;8.076;2022-10-22T02:27:46;1.60;;;0.30;;
46365;SDS011;32073;49.166;8.076;2022-10-22T02:32:02;0.50;;;0.20;;
46365;SDS011;32073;49.166;8.076;2022-10-22T02:36:06;0.65;;;0.20;;
46365;SDS011;32073;49.166;8.076;2022-10-22T02:40:08;0.40;;;0.17;;
46365;SDS011;32073;49.166;8.076;2022-10-22T02:44:09;0.52;;;0.10;;
46365;SDS011;32073;49.166;8.076;2022-10-22T02:48:10;1.70;;;0.10;;
46365;SDS011;32073;49.166;8.076;2022-10-22T02:52:11;0.57;;;0.13;;
46365;SDS011;32073;49.166;8.076;2022-10-22T02:56:12;0.32;;;0.10;;
46365;SDS011;32073;49.166;8.076;2022-10-22T03:00:13;0.40;;;0.20;;
46365;SDS011;32073;49.166;8.076;2022-10-22T03:04:14;0.93;;;0.25;;
46365;SDS011;32073;49.166;8.076;2022-10-22T03:08:15;0.45;;;0.17;;
46365;SDS011;32073;49.166;8.076;2022-10-22T03:12:16;0.57;;;0.30;;
46365;SDS011;32073;49.166;8.076;2022-10-22T03:16:16;0.68;;;0.20;;
46365;SDS011;32073;49.166;8.076;2022-10-22T03:20:17;0.32;;;0.13;;
46365;SDS011;32073;49.166;8.076;2022-10-22T03:24:20;0.28;;;0.10;;
46365;SDS011;32073;49.166;8.076;2022-10-22T03:28:26;0.63;;;0.20;;
46365;SDS011;32073;49.166;8.076;2022-10-22T03:32:27;6.05;;;0.30;;
46365;SDS011;32073;49.166;8.076;2022-10-22T03:36:28;1.02;;;0.22;;
46365;SDS011;32073;49.166;8.076;2022-10-22T03:40:28;0.88;;;0.20;;
46365;SDS011;32073;49.166;8.076;2022-10-22T03:44:29;1.20;;;0.20;;
46365;SDS011;32073;49.166;8.076;2022-10-22T03:48:31;1.77;;;0.50;;
46365;SDS011;32073;49.166;8.076;2022-10-22T03:52:35;2.83;;;0.60;;
46365;SDS011;32073;49.166;8.076;2022-10-22T03:56:38;0.47;;;0.30;;
46365;SDS011;32073;49.166;8.076;2022-10-22T04:00:38;1.27;;;0.45;;
46365;SDS011;32073;49.166;8.076;2022-10-22T04:04:39;0.40;;;0.40;;
46365;SDS011;32073;49.166;8.076;2022-10-22T04:08:41;2.03;;;0.43;;
46365;SDS011;32073;49.166;8.076;2022-10-22T04:12:45;0.95;;;0.40;;
46365;SDS011;32073;49.166;8.076;2022-10-22T04:16:47;1.25;;;0.20;;
46365;SDS011;32073;49.166;8.076;2022-10-22T04:20:50;0.30;;;0.20;;
46365;SDS011;32073;49.166;8.076;2022-10-22T04:24:51;2.42;;;0.20;;
46365;SDS011;32073;49.166;8.076;2022-10-22T04:28:52;1.70;;;0.45;;
46365;SDS011;32073;49.166;8.076;2022-10-22T04:32:53;1.25;;;0.20;;
46365;SDS011;32073;49.166;8.076;2022-10-22T04:36:53;0.50;;;0.15;;
46365;SDS011;32073;49.166;8.076;2022-10-22T04:40:54;0.63;;;0.20;;
46365;SDS011;32073;49.166;8.076;2022-10-22T04:44:55;1.05;;;0.20;;
46365;SDS011;32073;49.166;8.076;2022-10-22T04:48:55;0.68;;;0.20;;
46365;SDS011;32073;49.166;8.076;2022-10-22T04:52:56;0.20;;;0.10;;
46365;SDS011;32073;49.166;8.076;2022-10-22T04:56:57;0.88;;;0.17;;
46365;SDS011;32073;49.166;8.076;2022-10-22T05:00:57;0.70;;;0.10;;
46365;SDS011;32073;49.166;8.076;2022-10-22T05:04:58;0.17;;;0.10;;
46365;SDS011;32073;49.166;8.076;2022-10-22T05:09:00;0.88;;;0.20;;
46365;SDS011;32073;49.166;8.076;2022-10-22T05:13:04;0.45;;;0.20;;
46365;SDS011;32073;49.166;8.076;2022-10-22T05:17:05;0.38;;;0.20;;
46365;SDS011;32073;49.166;8.076;2022-10-22T05:21:09;0.10;;;0.10;;
46365;SDS011;32073;49.166;8.076;2022-10-22T05:29:15;0.70;;;0.15;;
46365;SDS011;32073;49.166;8.076;2022-10-22T05:33:16;0.40;;;0.20;;
46365;SDS011;32073;49.166;8.076;2022-10-22T05:37:16;0.38;;;0.10;;
46365;SDS011;32073;49.166;8.076;2022-10-22T05:41:18;1.25;;;0.10;;
46365;SDS011;32073;49.166;8.076;2022-10-22T05:45:22;1.65;;;0.17;;
46365;SDS011;32073;49.166;8.076;2022-10-22T05:49:22;0.30;;;0.10;;
46365;SDS011;32073;49.166;8.076;2022-10-22T05:53:23;1.02;;;0.20;;
46365;SDS011;32073;49.166;8.076;2022-10-22T05:57:24;1.13;;;0.10;;
46365;SDS011;32073;49.166;8.076;2022-10-22T06:01:26;1.38;;;0.30;;
46365;SDS011;32073;49.166;8.076;2022-10-22T06:05:29;2.08;;;0.45;;
46365;SDS011;32073;49.166;8.076;2022-10-22T06:09:30;1.40;;;0.73;;
46365;SDS011;32073;49.166;8.076;2022-10-22T06:13:35;0.82;;;0.28;;
46365;SDS011;32073;49.166;8.076;2022-10-22T06:17:37;0.50;;;0.50;;
46365;SDS011;32073;49.166;8.076;2022-10-22T06:21:38;1.15;;;0.52;;
46365;SDS011;32073;49.166;8.076;2022-10-22T06:25:38;0.82;;;0.30;;
46365;SDS011;32073;49.166;8.076;2022-10-22T06:29:39;3.40;;;0.60;;
46365;SDS011;32073;49.166;8.076;2022-10-22T06:33:40;1.98;;;0.50;;
46365;SDS011;32073;49.166;8.076;2022-10-22T06:37:42;0.98;;;0.43;;
46365;SDS011;32073;49.166;8.076;2022-10-22T06:41:42;0.40;;;0.30;;
46365;SDS011;32073;49.166;8.076;2022-10-22T06:45:43;7.35;;;2.78;;
46365;SDS011;32073;49.166;8.076;2022-10-22T06:49:44;3.92;;;1.98;;
46365;SDS011;32073;49.166;8.076;2022-10-22T06:53:45;1.40;;;0.88;;
46365;SDS011;32073;49.166;8.076;2022-10-22T06:57:46;1.05;;;0.50;;
46365;SDS011;32073;49.166;8.076;2022-10-22T07:01:47;0.43;;;0.30;;
46365;SDS011;32073;49.166;8.076;2022-10-22T07:05:49;0.32;;;0.22;;
46365;SDS011;32073;49.166;8.076;2022-10-22T07:09:51;1.42;;;0.30;;
46365;SDS011;32073;49.166;8.076;2022-10-22T07:13:55;0.35;;;0.20;;
46365;SDS011;32073;49.166;8.076;2022-10-22T07:17:57;1.33;;;0.30;;
46365;SDS011;32073;49.166;8.076;2022-10-22T07:21:58;0.57;;;0.20;;
46365;SDS011;32073;49.166;8.076;2022-10-22T07:25:59;0.35;;;0.30;;
46365;SDS011;32073;49.166;8.076;2022-10-22T07:30:06;0.40;;;0.40;;
46365;SDS011;32073;49.166;8.076;2022-10-22T07:34:08;1.42;;;0.55;;
46365;SDS011;32073;49.166;8.076;2022-10-22T07:38:09;0.93;;;0.52;;
46365;SDS011;32073;49.166;8.076;2022-10-22T07:42:10;0.60;;;0.40;;
46365;SDS011;32073;49.166;8.076;2022-10-22T07:46:11;0.93;;;0.40;;
46365;SDS011;32073;49.166;8.076;2022-10-22T07:50:11;0.43;;;0.40;;
46365;SDS011;32073;49.166;8.076;2022-10-22T07:54:12;0.40;;;0.30;;
46365;SDS011;32073;49.166;8.076;2022-10-22T07:58:13;0.50;;;0.43;;
46365;SDS011;32073;49.166;8.076;2022-10-22T08:02:13;1.23;;;0.30;;
46365;SDS011;32073;49.166;8.076;2022-10-22T08:06:14;0.38;;;0.30;;
46365;SDS011;32073;49.166;8.076;2022-10-22T08:10:16;1.00;;;0.22;;
46365;SDS011;32073;49.166;8.076;2022-10-22T08:14:17;0.40;;;0.38;;
46365;SDS011;32073;49.166;8.076;2022-10-22T08:18:18;0.50;;;0.30;;
46365;SDS011;32073;49.166;8.076;2022-10-22T08:22:18;0.50;;;0.35;;
46365;SDS011;32073;49.166;8.076;2022-10-22T08:26:19;1.60;;;0.60;;
46365;SDS011;32073;49.166;8.076;2022-10-22T08:30:20;1.00;;;0.43;;
46365;SDS011;32073;49.166;8.076;2022-10-22T08:34:21;2.15;;;0.60;;
46365;SDS011;32073;49.166;8.076;2022-10-22T08:38:22;1.25;;;0.50;;
46365;SDS011;32073;49.166;8.076;2022-10-22T08:42:39;0.75;;;0.50;;
46365;SDS011;32073;49.166;8.076;2022-10-22T08:47:15;0.63;;;0.55;;
46365;SDS011;32073;49.166;8.076;2022-10-22T08:51:46;2.38;;;0.50;;
46365;SDS011;32073;49.166;8.076;2022-10-22T08:55:47;0.85;;;0.30;;
46365;SDS011;32073;49.166;8.076;2022-10-22T08:59:54;1.10;;;0.38;;
46365;SDS011;32073;49.166;8.076;2022-10-22T09:08:44;0.50;;;0.22;;
46365;SDS011;32073;49.166;8.076;2022-10-22T09:12:46;0.52;;;0.20;;
46365;SDS011;32073;49.166;8.076;2022-10-22T09:21:29;0.20;;;0.20;;
46365;SDS011;32073;49.166;8.076;2022-10-22T09:25:52;0.93;;;0.20;;
46365;SDS011;32073;49.166;8.076;2022-10-22T09:29:54;0.98;;;0.50;;
46365;SDS011;32073;49.166;8.076;2022-10-22T09:33:55;2.83;;;0.40;;
46365;SDS011;32073;49.166;8.076;2022-10-22T09:37:58;2.00;;;0.30;;
46365;SDS011;32073;49.166;8.076;2022-10-22T09:42:07;1.83;;;0.47;;
46365;SDS011;32073;49.166;8.076;2022-10-22T09:46:15;0.82;;;0.25;;
46365;SDS011;32073;49.166;8.076;2022-10-22T09:54:44;0.88;;;0.40;;
46365;SDS011;32073;49.166;8.076;2022-10-22T09:58:45;0.65;;;0.20;;
46365;SDS011;32073;49.166;8.076;2022-10-22T10:02:54;0.88;;;0.30;;
46365;SDS011;32073;49.166;8.076;2022-10-22T10:06:56;0.38;;;0.30;;
46365;SDS011;32073;49.166;8.076;2022-10-22T10:10:58;1.08;;;0.30;;
46365;SDS011;32073;49.166;8.076;2022-10-22T10:19:36;1.58;;;0.63;;
46365;SDS011;32073;49.166;8.076;2022-10-22T10:23:56;1.42;;;0.40;;
46365;SDS011;32073;49.166;8.076;2022-10-22T10:37:41;0.82;;;0.38;;
46365;SDS011;32073;49.166;8.076;2022-10-22T10:41:57;0.25;;;0.25;;
46365;SDS011;32073;49.166;8.076;2022-10-22T10:46:24;2.20;;;0.40;;
46365;SDS011;32073;49.166;8.076;2022-10-22T10:51:02;1.77;;;0.50;;
46365;SDS011;32073;49.166;8.076;2022-10-22T11:04:28;0.93;;;0.30;;
46365;SDS011;32073;49.166;8.076;2022-10-22T11:13:26;0.30;;;0.30;;
46365;SDS011;32073;49.166;8.076;2022-10-22T11:17:40;0.60;;;0.50;;
46365;SDS011;32073;49.166;8.076;2022-10-22T11:21:50;1.95;;;0.60;;
46365;SDS011;32073;49.166;8.076;2022-10-22T11:25:56;1.05;;;0.40;;
46365;SDS011;32073;49.166;8.076;2022-10-22T11:30:01;1.25;;;0.40;;
46365;SDS011;32073;49.166;8.076;2022-10-22T11:38:25;3.60;;;0.40;;
46365;SDS011;32073;49.166;8.076;2022-10-22T11:46:53;3.15;;;0.55;;
46365;SDS011;32073;49.166;8.076;2022-10-22T11:51:03;3.25;;;0.80;;
46365;SDS011;32073;49.166;8.076;2022-10-22T11:59:52;1.63;;;0.40;;
46365;SDS011;32073;49.166;8.076;2022-10-22T12:04:15;2.63;;;0.65;;
46365;SDS011;32073;49.166;8.076;2022-10-22T12:08:23;1.10;;;0.22;;
46365;SDS011;32073;49.166;8.076;2022-10-22T12:12:25;4.43;;;1.88;;
46365;SDS011;32073;49.166;8.076;2022-10-22T12:20:31;1.92;;;0.30;;
46365;SDS011;32073;49.166;8.076;2022-10-22T12:24:36;2.13;;;0.50;;
46365;SDS011;32073;49.166;8.076;2022-10-22T12:28:41;1.23;;;0.50;;
46365;SDS011;32073;49.166;8.076;2022-10-22T12:32:42;2.67;;;0.68;;
46365;SDS011;32073;49.166;8.076;2022-10-22T12:36:43;2.03;;;0.30;;
46365;SDS011;32073;49.166;8.076;2022-10-22T12:40:47;1.60;;;0.30;;
46365;SDS011;32073;49.166;8.076;2022-10-22T12:44:53;3.10;;;0.50;;
46365;SDS011;32073;49.166;8.076;2022-10-22T12:48:57;2.70;;;0.70;;
46365;SDS011;32073;49.166;8.076;2022-10-22T12:53:00;6.10;;;0.52;;
46365;SDS011;32073;49.166;8.076;2022-10-22T12:57:00;2.03;;;0.60;;
46365;SDS011;32073;49.166;8.076;2022-10-22T13:01:01;1.52;;;0.32;;
46365;SDS011;32073;49.166;8.076;2022-10-22T13:09:21;2.25;;;0.65;;
46365;SDS011;32073;49.166;8.076;2022-10-22T13:22:23;1.67;;;0.70;;
46365;SDS011;32073;49.166;8.076;2022-10-22T13:26:36;1.63;;;0.40;;
46365;SDS011;32073;49.166;8.076;2022-10-22T13:30:37;1.35;;;0.50;;
46365;SDS011;32073;49.166;8.076;2022-10-22T13:34:39;1.35;;;0.40;;
46365;SDS011;32073;49.166;8.076;2022-10-22T13:38:39;1.92;;;0.50;;
46365;SDS011;32073;49.166;8.076;2022-10-22T13:42:41;1.92;;;0.43;;
46365;SDS011;32073;49.166;8.076;2022-10-22T13:46:41;1.73;;;0.40;;
46365;SDS011;32073;49.166;8.076;2022-10-22T13:50:42;1.48;;;0.43;;
46365;SDS011;32073;49.166;8.076;2022-10-22T13:54:43;2.08;;;0.40;;
46365;SDS011;32073;49.166;8.076;2022-10-22T13:58:44;3.90;;;0.63;;
46365;SDS011;32073;49.166;8.076;2022-10-22T14:02:47;3.10;;;0.85;;
46365;SDS011;32073;49.166;8.076;2022-10-22T14:06:51;1.50;;;0.55;;
46365;SDS011;32073;49.166;8.076;2022-10-22T14:10:52;1.95;;;0.50;;
46365;SDS011;32073;49.166;8.076;2022-10-22T14:14:53;0.95;;;0.40;;
46365;SDS011;32073;49.166;8.076;2022-10-22T14:18:54;3.42;;;0.50;;
46365;SDS011;32073;49.166;8.076;2022-10-22T14:22:55;2.80;;;0.50;;
46365;SDS011;32073;49.166;8.076;2022-10-22T14:27:01;1.23;;;0.70;;
46365;SDS011;32073;49.166;8.076;2022-10-22T14:31:02;2.25;;;0.50;;
46365;SDS011;32073;49.166;8.076;2022-10-22T14:35:03;3.85;;;0.45;;
46365;SDS011;32073;49.166;8.076;2022-10-22T14:39:04;1.90;;;0.40;;
46365;SDS011;32073;49.166;8.076;2022-10-22T14:43:05;2.03;;;0.50;;
46365;SDS011;32073;49.166;8.076;2022-10-22T14:47:05;1.42;;;0.75;;
46365;SDS011;32073;49.166;8.076;2022-10-22T14:51:06;1.60;;;0.57;;
46365;SDS011;32073;49.166;8.076;2022-10-22T14:55:13;2.10;;;0.50;;
46365;SDS011;32073;49.166;8.076;2022-10-22T14:59:15;1.05;;;0.32;;
46365;SDS011;32073;49.166;8.076;2022-10-22T15:03:16;1.95;;;0.52;;
46365;SDS011;32073;49.166;8.076;2022-10-22T15:07:17;1.08;;;0.50;;
46365;SDS011;32073;49.166;8.076;2022-10-22T15:11:19;2.35;;;0.40;;
46365;SDS011;32073;49.166;8.076;2022-10-22T15:15:21;0.80;;;0.55;;
46365;SDS011;32073;49.166;8.076;2022-10-22T15:19:21;1.02;;;0.50;;
46365;SDS011;32073;49.166;8.076;2022-10-22T15:23:22;2.05;;;0.47;;
46365;SDS011;32073;49.166;8.076;2022-10-22T15:27:23;1.10;;;0.40;;
46365;SDS011;32073;49.166;8.076;2022-10-22T15:31:40;2.13;;;0.73;;
46365;SDS011;32073;49.166;8.076;2022-10-22T15:35:49;2.30;;;0.50;;
46365;SDS011;32073;49.166;8.076;2022-10-22T15:39:50;1.65;;;0.85;;
46365;SDS011;32073;49.166;8.076;2022-10-22T15:43:51;1.50;;;0.57;;
46365;SDS011;32073;49.166;8.076;2022-10-22T15:47:52;0.90;;;0.38;;
46365;SDS011;32073;49.166;8.076;2022-10-22T15:51:53;1.95;;;0.40;;
46365;SDS011;32073;49.166;8.076;2022-10-22T15:55:54;1.73;;;0.50;;
46365;SDS011;32073;49.166;8.076;2022-10-22T15:59:55;3.28;;;0.40;;
46365;SDS011;32073;49.166;8.076;2022-10-22T16:03:55;0.95;;;0.38;;
46365;SDS011;32073;49.166;8.076;2022-10-22T16:08:01;0.90;;;0.60;;
46365;SDS011;32073;49.166;8.076;2022-10-22T16:12:02;1.98;;;1.20;;
46365;SDS011;32073;49.166;8.076;2022-10-22T16:16:06;4.22;;;1.60;;
46365;SDS011;32073;49.166;8.076;2022-10-22T16:20:07;4.78;;;1.17;;
46365;SDS011;32073;49.166;8.076;2022-10-22T16:24:08;3.67;;;1.08;;
46365;SDS011;32073;49.166;8.076;2022-10-22T16:28:11;1.30;;;0.85;;
46365;SDS011;32073;49.166;8.076;2022-10-22T16:32:11;3.40;;;0.70;;
46365;SDS011;32073;49.166;8.076;2022-10-22T16:36:13;2.10;;;0.82;;
46365;SDS011;32073;49.166;8.076;2022-10-22T16:40:16;4.20;;;0.90;;
46365;SDS011;32073;49.166;8.076;2022-10-22T16:44:17;3.28;;;0.75;;
46365;SDS011;32073;49.166;8.076;2022-10-22T16:48:18;1.65;;;0.80;;
46365;SDS011;32073;49.166;8.076;2022-10-22T16:52:18;4.60;;;1.00;;
46365;SDS011;32073;49.166;8.076;2022-10-22T16:56:19;2.17;;;0.95;;
46365;SDS011;32073;49.166;8.076;2022-10-22T17:00:20;4.38;;;0.80;;
46365;SDS011;32073;49.166;8.076;2022-10-22T17:04:21;2.63;;;1.35;;
46365;SDS011;32073;49.166;8.076;2022-10-22T17:08:22;3.88;;;1.52;;
46365;SDS011;32073;49.166;8.076;2022-10-22T17:12:23;1.90;;;1.02;;
46365;SDS011;32073;49.166;8.076;2022-10-22T17:16:23;6.53;;;2.05;;
46365;SDS011;32073;49.166;8.076;2022-10-22T17:20:24;5.82;;;2.58;;
46365;SDS011;32073;49.166;8.076;2022-10-22T17:24:25;7.68;;;2.83;;
46365;SDS011;32073;49.166;8.076;2022-10-22T17:28:27;6.53;;;3.13;;
46365;SDS011;32073;49.166;8.076;2022-10-22T17:32:28;5.13;;;2.60;;
46365;SDS011;32073;49.166;8.076;2022-10-22T17:36:29;5.35;;;2.80;;
46365;SDS011;32073;49.166;8.076;2022-10-22T17:40:31;5.38;;;2.83;;
46365;SDS011;32073;49.166;8.076;2022-10-22T17:44:33;5.20;;;2.08;;
46365;SDS011;32073;49.166;8.076;2022-10-22T17:48:34;7.05;;;2.97;;
46365;SDS011;32073;49.166;8.076;2022-10-22T17:52:35;4.97;;;2.70;;
46365;SDS011;32073;49.166;8.076;2022-10-22T17:56:36;4.60;;;2.72;;
46365;SDS011;32073;49.166;8.076;2022-10-22T18:00:39;7.88;;;2.70;;
46365;SDS011;32073;49.166;8.076;2022-10-22T18:04:39;3.55;;;1.70;;
46365;SDS011;32073;49.166;8.076;2022-10-22T18:08:40;7.03;;;1.90;;
46365;SDS011;32073;49.166;8.076;2022-10-22T18:12:41;3.92;;;1.77;;
46365;SDS011;32073;49.166;8.076;2022-10-22T18:16:41;3.33;;;2.20;;
46365;SDS011;32073;49.166;8.076;2022-10-22T18:20:46;3.40;;;2.30;;
46365;SDS011;32073;49.166;8.076;2022-10-22T18:24:49;3.72;;;1.90;;
46365;SDS011;32073;49.166;8.076;2022-10-22T18:28:49;3.72;;;2.20;;
46365;SDS011;32073;49.166;8.076;2022-10-22T18:32:50;4.15;;;1.65;;
46365;SDS011;32073;49.166;8.076;2022-10-22T18:36:54;3.50;;;1.08;;
46365;SDS011;32073;49.166;8.076;2022-10-22T18:40:54;1.00;;;0.70;;
46365;SDS011;32073;49.166;8.076;2022-10-22T18:44:55;1.95;;;0.70;;
46365;SDS011;32073;49.166;8.076;2022-10-22T18:48:56;3.20;;;0.82;;
46365;SDS011;32073;49.166;8.076;2022-10-22T18:52:58;3.50;;;1.77;;
46365;SDS011;32073;49.166;8.076;2022-10-22T18:56:58;3.95;;;1.38;;
46365;SDS011;32073;49.166;8.076;2022-10-22T19:01:04;2.78;;;0.90;;
46365;SDS011;32073;49.166;8.076;2022-10-22T19:05:09;2.28;;;1.00;;
46365;SDS011;32073;49.166;8.076;2022-10-22T19:09:12;3.08;;;0.80;;
46365;SDS011;32073;49.166;8.076;2022-10-22T19:13:14;1.23;;;0.70;;
46365;SDS011;32073;49.166;8.076;2022-10-22T19:17:17;3.60;;;0.80;;
46365;SDS011;32073;49.166;8.076;2022-10-22T19:21:18;1.25;;;0.82;;
46365;SDS011;32073;49.166;8.076;2022-10-22T19:25:19;2.10;;;0.70;;
46365;SDS011;32073;49.166;8.076;2022-10-22T19:29:20;0.80;;;0.60;;
46365;SDS011;32073;49.166;8.076;2022-10-22T19:33:21;3.80;;;0.85;;
46365;SDS011;32073;49.166;8.076;2022-10-22T19:37:21;2.38;;;0.70;;
46365;SDS011;32073;49.166;8.076;2022-10-22T19:41:23;1.90;;;0.55;;
46365;SDS011;32073;49.166;8.076;2022-10-22T19:45:25;2.88;;;0.80;;
46365;SDS011;32073;49.166;8.076;2022-10-22T19:49:26;2.20;;;0.88;;
46365;SDS011;32073;49.166;8.076;2022-10-22T19:53:27;1.40;;;0.80;;
46365;SDS011;32073;49.166;8.076;2022-10-22T19:57:29;1.40;;;0.77;;
46365;SDS011;32073;49.166;8.076;2022-10-22T20:01:30;3.63;;;2.13;;
46365;SDS011;32073;49.166;8.076;2022-10-22T20:05:31;3.35;;;1.98;;
46365;SDS011;32073;49.166;8.076;2022-10-22T20:09:31;4.93;;;1.58;;
46365;SDS011;32073;49.166;8.076;2022-10-22T20:13:36;5.55;;;1.98;;
46365;SDS011;32073;49.166;8.076;2022-10-22T20:17:39;2.75;;;1.60;;
46365;SDS011;32073;49.166;8.076;2022-10-22T20:21:40;5.22;;;2.50;;
46365;SDS011;32073;49.166;8.076;2022-10-22T20:25:43;5.45;;;1.90;;
46365;SDS011;32073;49.166;8.076;2022-10-22T20:29:45;2.58;;;1.95;;
46365;SDS011;32073;49.166;8.076;2022-10-22T20:33:46;3.67;;;2.13;;
46365;SDS011;32073;49.166;8.076;2022-10-22T20:37:49;6.65;;;1.67;;
46365;SDS011;32073;49.166;8.076;2022-10-22T20:41:50;2.80;;;1.48;;
46365;SDS011;32073;49.166;8.076;2022-10-22T20:45:50;6.18;;;2.40;;
46365;SDS011;32073;49.166;8.076;2022-10-22T20:49:51;3.72;;;1.75;;
46365;SDS011;32073;49.166;8.076;2022-10-22T20:53:52;2.63;;;1.20;;
46365;SDS011;32073;49.166;8.076;2022-10-22T20:57:52;5.43;;;1.42;;
46365;SDS011;32073;49.166;8.076;2022-10-22T21:01:54;3.15;;;1.83;;
46365;SDS011;32073;49.166;8.076;2022-10-22T21:05:54;5.72;;;2.15;;
46365;SDS011;32073;49.166;8.076;2022-10-22T21:09:55;5.50;;;1.48;;
46365;SDS011;32073;49.166;8.076;2022-10-22T21:13:56;4.30;;;1.75;;
46365;SDS011;32073;49.166;8.076;2022-10-22T21:17:56;3.13;;;1.17;;
46365;SDS011;32073;49.166;8.076;2022-10-22T21:21:57;2.30;;;1.55;;
46365;SDS011;32073;49.166;8.076;2022-10-22T21:25:58;2.05;;;1.13;;
46365;SDS011;32073;49.166;8.076;2022-10-22T21:29:59;3.33;;;1.20;;
46365;SDS011;32073;49.166;8.076;2022-10-22T21:33:59;2.92;;;1.10;;
46365;SDS011;32073;49.166;8.076;2022-10-22T21:38:00;3.30;;;1.45;;
46365;SDS011;32073;49.166;8.076;2022-10-22T21:42:01;1.30;;;0.93;;
46365;SDS011;32073;49.166;8.076;2022-10-22T21:46:05;2.40;;;1.20;;
46365;SDS011;32073;49.166;8.076;2022-10-22T21:50:10;2.30;;;1.70;;
46365;SDS011;32073;49.166;8.076;2022-10-22T21:54:10;2.85;;;1.20;;
46365;SDS011;32073;49.166;8.076;2022-10-22T21:58:11;3.08;;;1.40;;
46365;SDS011;32073;49.166;8.076;2022-10-22T22:02:12;1.92;;;1.00;;
46365;SDS011;32073;49.166;8.076;2022-10-22T22:06:13;4.53;;;1.02;;
46365;SDS011;32073;49.166;8.076;2022-10-22T22:10:14;4.15;;;1.00;;
46365;SDS011;32073;49.166;8.076;2022-10-22T22:14:15;2.17;;;0.80;;
46365;SDS011;32073;49.166;8.076;2022-10-22T22:18:16;1.05;;;0.60;;
46365;SDS011;32073;49.166;8.076;2022-10-22T22:22:17;2.15;;;0.70;;
46365;SDS011;32073;49.166;8.076;2022-10-22T22:26:21;2.08;;;0.73;;
46365;SDS011;32073;49.166;8.076;2022-10-22T22:30:26;2.10;;;1.05;;
46365;SDS011;32073;49.166;8.076;2022-10-22T22:34:27;4.93;;;0.98;;
46365;SDS011;32073;49.166;8.076;2022-10-22T22:38:28;1.75;;;0.70;;
46365;SDS011;32073;49.166;8.076;2022-10-22T22:42:28;2.70;;;0.85;;
46365;SDS011;32073;49.166;8.076;2022-10-22T22:46:29;2.47;;;0.93;;
46365;SDS011;32073;49.166;8.076;2022-10-22T22:50:30;1.13;;;0.50;;
46365;SDS011;32073;49.166;8.076;2022-10-22T22:54:30;2.20;;;0.80;;
46365;SDS011;32073;49.166;8.076;2022-10-22T22:58:31;2.00;;;0.88;;
46365;SDS011;32073;49.166;8.076;2022-10-22T23:02:32;2.88;;;1.30;;
46365;SDS011;32073;49.166;8.076;2022-10-22T23:06:33;3.35;;;1.00;;
46365;SDS011;32073;49.166;8.076;2022-10-22T23:10:36;1.95;;;0.70;;
46365;SDS011;32073;49.166;8.076;2022-10-22T23:14:37;1.88;;;0.63;;
46365;SDS011;32073;49.166;8.076;2022-10-22T23:18:37;2.28;;;0.82;;
46365;SDS011;32073;49.166;8.076;2022-10-22T23:22:38;4.55;;;0.82;;
46365;SDS011;32073;49.166;8.076;2022-10-22T23:26:40;2.65;;;0.63;;
46365;SDS011;32073;49.166;8.076;2022-10-22T23:30:44;2.10;;;0.70;;
46365;SDS011;32073;49.166;8.076;2022-10-22T23:34:44;1.13;;;0.60;;
46365;SDS011;32073;49.166;8.076;2022-10-22T23:38:45;1.52;;;0.60;;
46365;SDS011;32073;49.166;8.076;2022-10-22T23:42:46;1.95;;;0.60;;
46365;SDS011;32073;49.166;8.076;2022-10-22T23:46:47;1.05;;;0.63;;
46365;SDS011;32073;49.166;8.076;2022-10-22T23:50:48;1.00;;;0.70;;
46365;SDS011;32073;49.166;8.076;2022-10-22T23:54:49;2.08;;;0.82;;
46365;SDS011;32073;49.166;8.076;2022-10-22T23:58:49;4.40;;;0.75;;
